Time;durP1;ratioP1;P1;durP2;ratioP2;P2;SDS_P1;SDS_P2;PMS_P1;PMS_P2;Temp;Humidity;BMP_temperature;BMP_pressure;BME280_temperature;BME280_humidity;BME280_pressure;Samples;Min_cycle;Max_cycle;Signal;HPM_P1;HPM_P2
2024/01/23 00:01:35;;;;;;;28.38;2.65;;;9.00;18.80;;;;;;5040763;28;20162;-81
2024/01/23 00:04:01;;;;;;;22.55;2.70;;;9.10;22.10;;;;;;5038703;28;20173;-81
2024/01/23 00:06:27;;;;;;;29.13;3.60;;;9.10;20.40;;;;;;5020241;28;20186;-81
2024/01/23 00:08:53;;;;;;;23.47;3.03;;;9.00;20.90;;;;;;5038196;28;20940;-81
2024/01/23 00:11:19;;;;;;;23.23;2.35;;;9.00;22.60;;;;;;5038364;28;20397;-81
2024/01/23 00:13:48;;;;;;;26.42;2.90;;;9.00;22.10;;;;;;5038076;28;20162;-80
2024/01/23 00:16:14;;;;;;;32.75;3.33;;;9.00;19.90;;;;;;5038183;28;20161;-80
2024/01/23 00:18:40;;;;;;;29.60;3.80;;;9.00;23.50;;;;;;5038425;28;20189;-80
2024/01/23 00:21:06;;;;;;;23.43;2.60;;;9.00;21.80;;;;;;5038148;28;20157;-80
2024/01/23 00:23:31;;;;;;;26.70;3.73;;;9.00;22.00;;;;;;5038050;28;20166;-81
2024/01/23 00:25:57;;;;;;;23.60;2.47;;;9.00;35.60;;;;;;5038157;28;20188;-80
2024/01/23 00:28:23;;;;;;;28.73;3.40;;;9.00;37.20;;;;;;5037515;28;20189;-80
2024/01/23 00:30:49;;;;;;;22.80;2.63;;;9.00;42.90;;;;;;5019630;28;20185;-81
2024/01/23 00:33:14;;;;;;;35.30;3.40;;;9.00;43.40;;;;;;5019957;28;20176;-80
2024/01/23 00:35:40;;;;;;;21.97;2.60;;;8.90;44.30;;;;;;5038118;28;20174;-80
2024/01/23 00:38:07;;;;;;;28.90;2.87;;;8.80;41.70;;;;;;5037461;28;20280;-80
2024/01/23 00:40:33;;;;;;;23.65;2.65;;;8.90;39.40;;;;;;5038254;28;20530;-80
2024/01/23 00:42:59;;;;;;;25.02;2.47;;;8.90;37.70;;;;;;5037869;28;20198;-80
2024/01/23 00:45:25;;;;;;;33.90;3.33;;;8.90;38.40;;;;;;5037474;28;20177;-80
2024/01/23 00:47:50;;;;;;;33.90;3.70;;;8.90;38.20;;;;;;5037267;28;20190;-80
2024/01/23 00:50:17;;;;;;;24.73;3.00;;;8.90;37.50;;;;;;5037490;28;20177;-81
2024/01/23 00:52:43;;;;;;;25.15;2.40;;;8.90;37.70;;;;;;5037427;28;20635;-80
2024/01/23 00:55:09;;;;;;;25.70;2.97;;;8.90;39.70;;;;;;5037385;28;20169;-80
2024/01/23 00:57:35;;;;;;;24.88;3.15;;;8.80;44.00;;;;;;5037613;28;20193;-80
2024/01/23 01:00:05;;;;;;;27.47;3.80;;;8.80;42.60;;;;;;5037440;28;20162;-81
2024/01/23 01:02:31;;;;;;;25.05;3.05;;;8.80;40.50;;;;;;5037502;28;20165;-81
2024/01/23 01:04:56;;;;;;;25.55;3.22;;;8.80;42.70;;;;;;5038145;28;20582;-80
2024/01/23 01:07:22;;;;;;;21.63;2.63;;;8.80;48.30;;;;;;5037159;28;20201;-80
2024/01/23 01:09:48;;;;;;;28.10;3.77;;;8.80;47.50;;;;;;5037726;28;20173;-81
2024/01/23 01:12:13;;;;;;;30.50;3.17;;;8.80;48.50;;;;;;5038210;28;20162;-81
2024/01/23 01:14:39;;;;;;;24.67;3.07;;;8.80;46.80;;;;;;5038498;28;20157;-81
2024/01/23 01:17:05;;;;;;;35.10;3.27;;;8.80;47.20;;;;;;5037512;28;20720;-80
2024/01/23 01:19:31;;;;;;;22.07;2.43;;;8.70;45.40;;;;;;5037762;28;20268;-80
2024/01/23 01:21:56;;;;;;;27.30;2.60;;;8.70;45.70;;;;;;5037031;28;20166;-79
2024/01/23 01:24:22;;;;;;;26.37;2.30;;;8.70;44.70;;;;;;5037822;28;20488;-81
2024/01/23 01:26:47;;;;;;;26.87;3.10;;;8.60;47.30;;;;;;5038715;28;20190;-80
2024/01/23 01:29:13;;;;;;;22.73;3.40;;;8.60;55.50;;;;;;5039075;28;20249;-81
2024/01/23 01:31:39;;;;;;;21.47;3.33;;;8.60;65.80;;;;;;5039460;28;20170;-81
2024/01/23 01:34:04;;;;;;;25.80;3.00;;;8.50;74.80;;;;;;5039860;28;20162;-82
2024/01/23 01:36:30;;;;;;;28.07;3.50;;;8.50;78.70;;;;;;5038973;28;20188;-81
2024/01/23 01:38:56;;;;;;;33.07;3.13;;;8.50;83.90;;;;;;5039874;28;20216;-81
2024/01/23 01:41:22;;;;;;;30.27;3.17;;;8.50;87.50;;;;;;5039474;28;20639;-81
2024/01/23 01:43:48;;;;;;;25.10;2.85;;;8.40;89.40;;;;;;5040276;28;20162;-82
2024/01/23 01:46:16;;;;;;;27.30;3.20;;;8.40;90.50;;;;;;5021760;28;20173;-81
2024/01/23 01:48:43;;;;;;;26.42;3.42;;;8.40;90.00;;;;;;5040060;28;20419;-83
2024/01/23 01:51:10;;;;;;;26.35;3.05;;;8.40;92.00;;;;;;5021996;28;20170;-81
2024/01/23 01:53:36;;;;;;;40.15;4.20;;;8.40;96.50;;;;;;5021636;28;20174;-81
2024/01/23 01:56:03;;;;;;;24.58;3.38;;;8.40;97.00;;;;;;5039701;28;20170;-83
2024/01/23 01:58:31;;;;;;;23.95;2.80;;;8.40;96.50;;;;;;5039325;28;20223;-81
2024/01/23 02:01:01;;;;;;;24.27;3.92;;;8.40;96.70;;;;;;5021060;28;20651;-81
2024/01/23 02:03:27;;;;;;;26.42;2.63;;;8.30;96.30;;;;;;5038733;28;20750;-81
2024/01/23 02:05:54;;;;;;;26.63;2.88;;;8.30;96.30;;;;;;5022840;28;20161;-81
2024/01/23 02:08:20;;;;;;;37.70;3.30;;;8.30;95.90;;;;;;5039972;28;20582;-81
2024/01/23 02:10:45;;;;;;;28.23;3.28;;;8.20;94.60;;;;;;5022572;28;20184;-81
2024/01/23 02:13:11;;;;;;;28.57;3.63;;;8.20;93.60;;;;;;5039998;28;20174;-83
2024/01/23 02:15:37;;;;;;;22.57;2.33;;;8.20;92.90;;;;;;5041379;28;20166;-82
2024/01/23 02:18:03;;;;;;;30.17;3.47;;;8.20;92.60;;;;;;5042739;28;20194;-82
2024/01/23 02:20:29;;;;;;;34.83;3.50;;;8.20;92.10;;;;;;5042674;28;20638;-82
2024/01/23 02:22:54;;;;;;;26.27;4.00;;;8.20;91.50;;;;;;5042159;28;20404;-81
2024/01/23 02:25:20;;;;;;;24.73;3.63;;;8.10;90.90;;;;;;5041523;28;20492;-81
2024/01/23 02:27:46;;;;;;;30.90;3.50;;;8.10;89.20;;;;;;5042039;28;20221;-83
2024/01/23 02:30:12;;;;;;;30.90;2.90;;;8.10;87.80;;;;;;5040700;28;20181;-82
2024/01/23 02:32:46;;;;;;;23.17;2.70;;;8.10;86.30;;;;;;5042033;28;20173;-81
2024/01/23 02:35:13;;;;;;;24.77;3.55;;;8.10;86.90;;;;;;5041571;28;20488;-81
2024/01/23 02:37:38;;;;;;;24.98;3.47;;;8.10;83.80;;;;;;5040749;28;20189;-83
2024/01/23 02:40:05;;;;;;;34.03;3.53;;;8.10;82.20;;;;;;5043057;28;20166;-82
2024/01/23 02:42:32;;;;;;;31.23;3.45;;;8.10;80.40;;;;;;5027122;28;20397;-81
2024/01/23 02:44:57;;;;;;;33.13;4.38;;;8.00;79.70;;;;;;5039999;28;20531;-82
2024/01/23 02:47:23;;;;;;;28.63;3.23;;;8.00;80.20;;;;;;5041768;28;20182;-81
2024/01/23 02:49:49;;;;;;;31.50;3.60;;;8.10;78.40;;;;;;5022771;28;20197;-82
2024/01/23 02:52:15;;;;;;;34.53;3.67;;;8.10;76.10;;;;;;5023450;28;20174;-81
2024/01/23 02:54:40;;;;;;;26.00;3.83;;;8.10;75.10;;;;;;5040345;28;20423;-82
2024/01/23 02:57:06;;;;;;;23.37;3.80;;;8.10;71.30;;;;;;5040201;28;20223;-81
2024/01/23 02:59:32;;;;;;;32.53;3.50;;;8.10;71.10;;;;;;5040128;28;20219;-82
2024/01/23 03:01:58;;;;;;;27.35;3.63;;;8.10;67.80;;;;;;5021713;28;20666;-81
2024/01/23 03:04:24;;;;;;;28.00;3.07;;;8.20;62.30;;;;;;5039854;28;20166;-81
2024/01/23 03:06:49;;;;;;;26.57;3.60;;;8.20;60.30;;;;;;5040069;28;20224;-82
2024/01/23 03:09:15;;;;;;;25.60;3.83;;;8.20;59.20;;;;;;5039514;28;20180;-82
2024/01/23 03:11:40;;;;;;;25.83;3.10;;;8.20;57.30;;;;;;5040042;28;20177;-82
2024/01/23 03:14:06;;;;;;;22.80;3.17;;;8.20;57.80;;;;;;5039155;28;20203;-80
2024/01/23 03:16:32;;;;;;;22.15;2.10;;;8.20;53.50;;;;;;5021802;28;20190;-82
2024/01/23 03:18:58;;;;;;;25.23;3.10;;;8.20;53.70;;;;;;5038815;28;20189;-81
2024/01/23 03:21:23;;;;;;;28.70;3.70;;;8.20;55.40;;;;;;5040015;28;20164;-81
2024/01/23 03:23:49;;;;;;;34.90;4.63;;;8.20;56.50;;;;;;5040888;28;20173;-82
2024/01/23 03:26:15;;;;;;;37.20;3.87;;;8.20;57.00;;;;;;5039174;28;20220;-83
2024/01/23 03:28:40;;;;;;;30.43;3.53;;;8.20;52.00;;;;;;5040043;28;20197;-81
2024/01/23 03:31:06;;;;;;;24.30;2.90;;;8.30;50.00;;;;;;5022139;28;20174;-82
2024/01/23 03:33:32;;;;;;;26.50;3.50;;;8.30;51.70;;;;;;5038319;28;20162;-82
2024/01/23 03:35:58;;;;;;;21.30;2.92;;;8.20;52.70;;;;;;5038521;28;20640;-81
2024/01/23 03:38:24;;;;;;;22.40;2.60;;;8.20;53.80;;;;;;5039177;28;20208;-81
2024/01/23 03:40:50;;;;;;;28.90;2.47;;;8.20;52.80;;;;;;5038590;28;20192;-81
2024/01/23 03:43:16;;;;;;;32.27;4.00;;;8.20;52.80;;;;;;5038470;28;20166;-80
2024/01/23 03:45:41;;;;;;;29.20;3.33;;;8.20;52.60;;;;;;5038192;28;20491;-81
2024/01/23 03:48:07;;;;;;;29.90;2.80;;;8.20;52.90;;;;;;5038640;28;20205;-80
2024/01/23 03:50:33;;;;;;;27.50;2.80;;;8.20;53.80;;;;;;5020434;28;20205;-82
2024/01/23 03:52:59;;;;;;;29.65;3.38;;;8.20;53.90;;;;;;5022275;28;20412;-81
2024/01/23 03:55:27;;;;;;;24.70;2.90;;;8.10;53.60;;;;;;5039036;28;20169;-83
2024/01/23 03:57:53;;;;;;;27.90;3.30;;;8.10;52.30;;;;;;5037759;28;20216;-81
2024/01/23 04:00:20;;;;;;;36.43;3.33;;;8.10;53.30;;;;;;5037552;28;20166;-81
2024/01/23 04:02:45;;;;;;;22.52;3.75;;;8.10;53.50;;;;;;5037718;28;20762;-81
2024/01/23 04:05:11;;;;;;;23.97;3.63;;;8.10;51.50;;;;;;5038465;28;20166;-81
2024/01/23 04:07:37;;;;;;;35.47;3.40;;;8.10;46.80;;;;;;5041797;28;20197;-81
2024/01/23 04:10:06;;;;;;;24.17;3.10;;;8.10;50.20;;;;;;5022454;28;20201;-81
2024/01/23 04:12:32;;;;;;;29.00;3.20;;;8.10;53.40;;;;;;5041112;28;20407;-82
2024/01/23 04:15:00;;;;;;;38.27;4.70;;;8.10;55.10;;;;;;5041371;28;20170;-81
2024/01/23 04:17:28;;;;;;;24.40;3.10;;;8.10;56.50;;;;;;5042247;28;20185;-82
2024/01/23 04:19:54;;;;;;;31.73;3.63;;;8.10;57.50;;;;;;5040767;28;20158;-81
2024/01/23 04:22:20;;;;;;;25.07;3.23;;;8.10;59.80;;;;;;5041760;28;20636;-81
2024/01/23 04:24:46;;;;;;;33.45;4.20;;;8.00;62.40;;;;;;5041002;28;20396;-81
2024/01/23 04:27:12;;;;;;;29.47;3.03;;;8.10;61.20;;;;;;5040042;28;20667;-81
2024/01/23 04:29:38;;;;;;;32.72;3.67;;;8.00;62.30;;;;;;5023159;28;20257;-81
2024/01/23 04:32:04;;;;;;;33.23;3.70;;;8.10;60.50;;;;;;5023219;28;20201;-82
2024/01/23 04:34:29;;;;;;;29.65;3.50;;;8.10;60.80;;;;;;5024378;28;20173;-82
2024/01/23 04:36:55;;;;;;;28.00;5.43;;;8.10;63.40;;;;;;5041690;28;20186;-80
2024/01/23 04:39:21;;;;;;;33.63;3.47;;;8.10;63.90;;;;;;5022371;28;20193;-82
2024/01/23 04:41:46;;;;;;;22.47;3.10;;;8.10;60.70;;;;;;5042420;28;20169;-82
2024/01/23 04:44:12;;;;;;;30.00;4.37;;;8.00;62.60;;;;;;5022513;28;20543;-81
2024/01/23 04:46:38;;;;;;;27.13;3.40;;;8.10;59.00;;;;;;5039472;28;20188;-80
2024/01/23 04:49:03;;;;;;;24.27;2.87;;;8.00;58.50;;;;;;5040212;28;20170;-81
2024/01/23 04:51:29;;;;;;;26.93;3.17;;;8.00;59.70;;;;;;5040423;28;20209;-81
2024/01/23 04:53:56;;;;;;;34.22;3.75;;;7.90;62.10;;;;;;5041038;28;20216;-81
2024/01/23 04:56:22;;;;;;;22.58;3.50;;;7.90;66.90;;;;;;5040535;28;20212;-81
2024/01/23 04:58:48;;;;;;;32.90;2.90;;;7.90;67.00;;;;;;5041260;28;20194;-82
2024/01/23 05:01:14;;;;;;;21.63;2.45;;;7.90;66.20;;;;;;5041515;28;20454;-82
2024/01/23 05:03:40;;;;;;;28.60;2.80;;;7.90;67.80;;;;;;5041952;28;20205;-81
2024/01/23 05:06:06;;;;;;;24.37;2.53;;;7.80;68.30;;;;;;5041225;28;20166;-81
2024/01/23 05:08:34;;;;;;;30.50;2.97;;;7.80;71.00;;;;;;5040942;28;20260;-82
2024/01/23 05:11:00;;;;;;;23.35;3.00;;;7.70;73.90;;;;;;5023359;28;20170;-83
2024/01/23 05:13:25;;;;;;;23.93;3.23;;;7.70;73.80;;;;;;5023448;28;20170;-80
2024/01/23 05:15:51;;;;;;;30.20;3.90;;;7.60;72.70;;;;;;5022273;28;20174;-81
2024/01/23 05:18:17;;;;;;;30.63;2.87;;;7.60;73.50;;;;;;5038846;28;20204;-82
2024/01/23 05:20:42;;;;;;;27.80;4.03;;;7.50;75.10;;;;;;5023463;28;20204;-82
2024/01/23 05:23:08;;;;;;;24.63;2.80;;;7.50;76.40;;;;;;5041413;28;20696;-81
2024/01/23 05:25:35;;;;;;;32.63;3.50;;;7.50;77.40;;;;;;5040436;28;20170;-82
2024/01/23 05:28:00;;;;;;;24.20;3.40;;;7.50;78.10;;;;;;5023060;28;20566;-82
2024/01/23 05:30:26;;;;;;;31.77;4.20;;;7.40;79.20;;;;;;5039769;28;20250;-81
2024/01/23 05:32:52;;;;;;;30.60;3.03;;;7.40;75.60;;;;;;5040718;28;20196;-83
2024/01/23 05:35:17;;;;;;;33.13;3.27;;;7.40;76.30;;;;;;5023032;28;20174;-82
2024/01/23 05:37:43;;;;;;;32.37;3.40;;;7.40;77.60;;;;;;5040520;28;20559;-80
2024/01/23 05:40:12;;;;;;;21.67;2.03;;;7.30;77.80;;;;;;5040762;28;20158;-82
2024/01/23 05:42:38;;;;;;;23.30;3.20;;;7.30;81.20;;;;;;5040408;28;20450;-83
2024/01/23 05:45:05;;;;;;;29.08;3.92;;;7.30;76.70;;;;;;5039621;28;20166;-80
2024/01/23 05:47:30;;;;;;;26.70;2.60;;;7.30;76.80;;;;;;5040009;28;20178;-81
2024/01/23 05:49:56;;;;;;;24.37;2.67;;;7.30;75.80;;;;;;5039348;28;20173;-81
2024/01/23 05:52:22;;;;;;;23.30;3.00;;;7.30;77.00;;;;;;5041293;28;20193;-82
2024/01/23 05:54:49;;;;;;;24.67;3.17;;;7.30;77.70;;;;;;5041097;28;20253;-82
2024/01/23 05:57:15;;;;;;;25.63;3.50;;;7.20;79.40;;;;;;5039381;28;20511;-81
2024/01/23 05:59:41;;;;;;;26.50;2.67;;;7.20;80.70;;;;;;5022657;28;20217;-83
2024/01/23 06:02:07;;;;;;;21.40;2.65;;;7.20;80.40;;;;;;5040914;28;20185;-81
2024/01/23 06:04:32;;;;;;;29.40;3.27;;;7.20;82.00;;;;;;5040479;28;20164;-82
2024/01/23 06:06:58;;;;;;;29.67;3.73;;;7.20;82.30;;;;;;5040411;28;20460;-80
2024/01/23 06:09:24;;;;;;;30.83;3.85;;;7.10;81.50;;;;;;5039901;28;20150;-81
2024/01/23 06:11:51;;;;;;;25.03;2.30;;;7.10;83.00;;;;;;5040229;28;20169;-81
2024/01/23 06:14:17;;;;;;;29.90;3.60;;;7.10;84.20;;;;;;5021878;28;20172;-80
2024/01/23 06:16:43;;;;;;;25.03;2.87;;;7.10;84.10;;;;;;5039529;28;20273;-81
2024/01/23 06:19:09;;;;;;;21.90;2.40;;;7.10;82.80;;;;;;5022014;28;20198;-81
2024/01/23 06:21:35;;;;;;;22.37;2.43;;;7.10;83.10;;;;;;5022668;28;20201;-80
2024/01/23 06:24:01;;;;;;;30.45;3.35;;;7.10;80.60;;;;;;5040266;28;20797;-83
2024/01/23 06:26:27;;;;;;;26.20;3.13;;;7.10;81.10;;;;;;5024654;28;20189;-81
2024/01/23 06:28:52;;;;;;;31.07;3.60;;;7.10;82.20;;;;;;5022483;28;20771;-80
2024/01/23 06:31:25;;;;;;;31.73;4.27;;;7.00;82.00;;;;;;5038744;28;20910;-82
2024/01/23 06:33:51;;;;;;;23.92;2.70;;;7.00;82.80;;;;;;5043962;28;20146;-81
2024/01/23 06:36:17;;;;;;;33.17;3.47;;;7.00;82.30;;;;;;5045347;28;20180;-82
2024/01/23 06:38:42;;;;;;;24.90;3.03;;;7.00;82.10;;;;;;5027230;28;20256;-81
2024/01/23 06:41:08;;;;;;;20.03;2.87;;;7.00;82.00;;;;;;5044143;28;20224;-82
2024/01/23 06:43:34;;;;;;;26.40;3.70;;;7.00;81.40;;;;;;5044378;28;20194;-81
2024/01/23 06:46:00;;;;;;;25.90;3.23;;;7.00;81.90;;;;;;5044503;28;20700;-82
2024/01/23 06:48:25;;;;;;;33.00;3.53;;;7.00;79.40;;;;;;5041928;28;20169;-81
2024/01/23 06:50:51;;;;;;;31.33;3.67;;;7.00;81.00;;;;;;5043951;28;20539;-82
2024/01/23 06:53:17;;;;;;;22.13;2.23;;;7.00;80.00;;;;;;5043223;28;20212;-83
2024/01/23 06:55:42;;;;;;;24.83;2.50;;;7.00;79.70;;;;;;5042959;28;20657;-82
2024/01/23 06:58:08;;;;;;;24.10;3.47;;;7.00;79.80;;;;;;5024134;28;20225;-81
2024/01/23 07:00:34;;;;;;;22.90;2.80;;;6.90;81.20;;;;;;5025643;28;20165;-81
2024/01/23 07:03:00;;;;;;;24.50;2.63;;;6.90;83.20;;;;;;5042504;28;20243;-81
2024/01/23 07:05:25;;;;;;;32.83;3.60;;;6.90;83.30;;;;;;5042383;28;20186;-83
2024/01/23 07:07:52;;;;;;;26.97;2.60;;;6.90;83.40;;;;;;5042831;28;20205;-82
2024/01/23 07:10:19;;;;;;;28.45;3.17;;;6.90;82.50;;;;;;5043878;28;20607;-82
2024/01/23 07:12:44;;;;;;;23.35;3.22;;;6.90;82.10;;;;;;5041301;28;20234;-81
2024/01/23 07:15:10;;;;;;;25.40;2.90;;;6.90;83.30;;;;;;5041316;28;20220;-82
2024/01/23 07:17:35;;;;;;;22.70;2.30;;;6.90;83.70;;;;;;5038509;28;20244;-82
2024/01/23 07:20:02;;;;;;;27.57;3.10;;;6.90;85.50;;;;;;5022032;28;20173;-82
2024/01/23 07:22:28;;;;;;;47.05;4.00;;;6.90;86.30;;;;;;5041585;28;20173;-82
2024/01/23 07:24:54;;;;;;;22.83;2.60;;;6.90;86.30;;;;;;5022815;28;20166;-82
2024/01/23 07:27:23;;;;;;;21.07;2.70;;;6.90;87.30;;;;;;5039672;28;20420;-80
2024/01/23 07:29:48;;;;;;;30.17;3.78;;;6.80;89.60;;;;;;5039771;28;20162;-81
2024/01/23 07:32:14;;;;;;;22.90;2.90;;;6.80;90.10;;;;;;5040728;28;20224;-81
2024/01/23 07:34:39;;;;;;;23.47;3.07;;;6.80;90.80;;;;;;5021030;28;20174;-82
2024/01/23 07:37:05;;;;;;;23.10;2.60;;;6.80;90.60;;;;;;5038017;28;20190;-82
2024/01/23 07:39:31;;;;;;;26.90;2.70;;;6.80;92.20;;;;;;5037702;28;20189;-83
2024/01/23 07:41:57;;;;;;;23.87;2.90;;;6.80;92.80;;;;;;5040125;28;20635;-82
2024/01/23 07:44:23;;;;;;;26.92;3.25;;;6.80;92.50;;;;;;5041486;28;20165;-82
2024/01/23 07:46:48;;;;;;;20.70;2.50;;;6.80;92.20;;;;;;5023099;28;20602;-82
2024/01/23 07:49:15;;;;;;;32.90;3.90;;;6.80;91.50;;;;;;5042132;28;20657;-81
2024/01/23 07:51:51;;;;;;;26.13;4.45;;;6.80;92.10;;;;;;5041469;28;20178;-82
2024/01/23 07:54:17;;;;;;;26.70;2.80;;;6.80;92.50;;;;;;5041833;28;20639;-82
2024/01/23 07:56:43;;;;;;;29.70;3.72;;;6.80;91.00;;;;;;5006009;28;20202;-81
2024/01/23 07:59:09;;;;;;;26.27;2.40;;;6.80;92.20;;;;;;5040249;28;20253;-81
2024/01/23 08:01:34;;;;;;;28.40;2.90;;;6.80;92.80;;;;;;5023704;28;20404;-82
2024/01/23 08:04:00;;;;;;;24.73;2.90;;;6.80;92.50;;;;;;5040726;28;20483;-81
2024/01/23 08:06:26;;;;;;;21.10;2.50;;;6.80;92.70;;;;;;5040076;28;20182;-82
2024/01/23 08:08:52;;;;;;;39.77;3.80;;;6.80;92.30;;;;;;5041392;28;20170;-81
2024/01/23 08:11:20;;;;;;;26.77;3.00;;;6.80;91.70;;;;;;5041030;28;20694;-82
2024/01/23 08:13:46;;;;;;;24.10;2.85;;;6.90;92.00;;;;;;5023157;28;20177;-82
2024/01/23 08:16:11;;;;;;;26.70;2.63;;;6.90;91.90;;;;;;5023830;28;20258;-81
2024/01/23 08:18:38;;;;;;;31.50;3.57;;;6.90;92.10;;;;;;5041314;28;20471;-80
2024/01/23 08:21:05;;;;;;;27.25;2.92;;;6.90;92.80;;;;;;5023663;28;20405;-81
2024/01/23 08:23:31;;;;;;;36.78;3.40;;;6.90;92.00;;;;;;5041394;28;20177;-81
2024/01/23 08:25:57;;;;;;;26.00;3.47;;;6.90;91.80;;;;;;5041975;28;20162;-81
2024/01/23 08:28:23;;;;;;;27.80;3.13;;;6.80;93.60;;;;;;5040748;28;20650;-81
2024/01/23 08:30:49;;;;;;;26.67;3.03;;;6.90;93.80;;;;;;5040137;28;20516;-81
2024/01/23 08:33:19;;;;;;;23.50;2.80;;;6.90;93.70;;;;;;5040441;28;20173;-81
2024/01/23 08:35:45;;;;;;;30.15;3.25;;;6.90;92.90;;;;;;5039690;28;20626;-81
2024/01/23 08:38:11;;;;;;;23.25;2.95;;;7.00;93.60;;;;;;5039605;28;20190;-80
2024/01/23 08:40:41;;;;;;;22.53;2.40;;;7.00;93.50;;;;;;5040337;28;20196;-81
2024/01/23 08:43:07;;;;;;;26.63;3.20;;;7.00;93.00;;;;;;5040166;28;20149;-82
2024/01/23 08:45:33;;;;;;;29.52;5.15;;;7.00;94.40;;;;;;5040453;28;20627;-81
2024/01/23 08:47:59;;;;;;;38.60;4.97;;;7.00;93.20;;;;;;5040635;28;20190;-81
2024/01/23 08:50:25;;;;;;;25.00;3.00;;;7.10;93.30;;;;;;5022664;28;20193;-82
2024/01/23 08:52:50;;;;;;;24.33;2.63;;;7.10;94.00;;;;;;5038204;28;20190;-81
2024/01/23 08:55:16;;;;;;;32.20;3.80;;;7.10;94.30;;;;;;5022607;28;20181;-81
2024/01/23 08:57:43;;;;;;;21.60;2.77;;;7.10;93.60;;;;;;5039117;28;20579;-80
2024/01/23 09:00:11;;;;;;;39.50;3.60;;;7.20;93.70;;;;;;5021114;28;20169;-81
2024/01/23 09:02:37;;;;;;;26.98;3.58;;;7.20;92.70;;;;;;5039941;28;20165;-81
2024/01/23 09:05:03;;;;;;;24.33;4.07;;;7.20;93.40;;;;;;5040456;28;20190;-81
2024/01/23 09:07:32;;;;;;;23.77;2.50;;;7.20;92.80;;;;;;5022628;28;20201;-81
2024/01/23 09:09:57;;;;;;;32.30;3.90;;;7.30;92.40;;;;;;5039794;28;20209;-81
2024/01/23 09:12:25;;;;;;;25.10;3.60;;;7.30;91.60;;;;;;5041337;28;20165;-82
2024/01/23 09:14:50;;;;;;;24.92;3.10;;;7.30;92.50;;;;;;5039111;28;20173;-82
2024/01/23 09:17:16;;;;;;;26.30;3.27;;;7.30;92.30;;;;;;5037961;28;20194;-81
2024/01/23 09:19:42;;;;;;;21.30;2.50;;;7.40;91.80;;;;;;5020437;28;20205;-81
2024/01/23 09:22:08;;;;;;;24.87;2.50;;;7.40;91.70;;;;;;5039164;28;20201;-81
2024/01/23 09:24:34;;;;;;;31.10;3.60;;;7.40;91.40;;;;;;5019803;28;20174;-81
2024/01/23 09:27:01;;;;;;;28.47;3.33;;;7.40;90.30;;;;;;5038317;28;20188;-81
2024/01/23 09:29:27;;;;;;;29.38;3.63;;;7.50;91.60;;;;;;5039130;28;20158;-82
2024/01/23 09:31:53;;;;;;;24.70;3.58;;;7.50;91.70;;;;;;5021508;28;20169;-81
2024/01/23 09:34:18;;;;;;;30.97;2.87;;;7.50;92.20;;;;;;5020401;28;20177;-81
2024/01/23 09:36:44;;;;;;;28.33;3.40;;;7.60;91.30;;;;;;5038330;28;20728;-81
2024/01/23 09:39:13;;;;;;;30.17;3.63;;;7.60;91.10;;;;;;5038056;28;20186;-82
2024/01/23 09:41:45;;;;;;;29.10;4.65;;;7.60;91.70;;;;;;5020169;28;20166;-81
2024/01/23 09:44:12;;;;;;;25.00;3.20;;;7.70;92.10;;;;;;5019717;28;20694;-83
2024/01/23 09:46:39;;;;;;;25.92;3.55;;;7.70;90.40;;;;;;5038244;28;20201;-81
2024/01/23 09:49:05;;;;;;;25.63;2.80;;;7.70;87.10;;;;;;5019693;28;20253;-80
2024/01/23 09:51:34;;;;;;;26.63;3.50;;;7.70;90.10;;;;;;5037199;28;20166;-81
2024/01/23 09:54:00;;;;;;;22.45;3.53;;;7.80;84.20;;;;;;5020355;28;20554;-80
2024/01/23 09:56:27;;;;;;;25.07;3.37;;;7.80;87.00;;;;;;5037097;28;20268;-82
2024/01/23 09:58:53;;;;;;;24.35;3.10;;;7.90;85.40;;;;;;5036949;28;20855;-81
2024/01/23 10:01:19;;;;;;;44.10;4.10;;;7.90;80.60;;;;;;5038270;28;20162;-81
2024/01/23 10:03:48;;;;;;;37.70;4.15;;;8.00;78.00;;;;;;5037154;28;20972;-81
2024/01/23 10:06:14;;;;;;;37.25;3.33;;;8.00;77.20;;;;;;5036924;28;20165;-81
2024/01/23 10:08:41;;;;;;;30.35;3.80;;;8.10;73.70;;;;;;5036797;28;20177;-82
2024/01/23 10:11:07;;;;;;;29.95;3.53;;;8.10;71.50;;;;;;5037743;28;20184;-81
2024/01/23 10:13:37;;;;;;;25.60;3.50;;;8.20;67.70;;;;;;5037944;28;20166;-82
2024/01/23 10:16:03;;;;;;;38.42;4.00;;;8.30;67.00;;;;;;5037721;28;20609;-81
2024/01/23 10:18:28;;;;;;;34.03;4.30;;;8.30;64.60;;;;;;5037043;28;20260;-81
2024/01/23 10:20:54;;;;;;;22.17;2.80;;;8.40;56.20;;;;;;5018949;28;20413;-81
2024/01/23 10:23:20;;;;;;;27.93;4.13;;;8.30;51.50;;;;;;5037688;28;20166;-83
2024/01/23 10:25:46;;;;;;;28.33;4.43;;;8.40;46.30;;;;;;5038335;28;20162;-81
2024/01/23 10:28:13;;;;;;;23.85;3.17;;;8.50;48.10;;;;;;5036112;28;20177;-80
2024/01/23 10:30:40;;;;;;;25.67;4.75;;;8.50;44.00;;;;;;5018731;28;20542;-81
2024/01/23 10:33:06;;;;;;;24.40;2.97;;;8.50;40.90;;;;;;5018988;28;20681;-81
2024/01/23 10:35:35;;;;;;;30.52;3.50;;;8.60;41.10;;;;;;5019421;28;20177;-82
2024/01/23 10:38:07;;;;;;;29.58;2.95;;;8.60;39.90;;;;;;5037802;28;20541;-81
2024/01/23 10:40:33;;;;;;;23.73;3.63;;;8.60;37.00;;;;;;5038132;28;20600;-82
2024/01/23 10:42:59;;;;;;;30.73;3.70;;;8.60;39.00;;;;;;5037103;28;20162;-81
2024/01/23 10:45:26;;;;;;;33.17;3.58;;;8.60;39.00;;;;;;5037732;28;20458;-81
2024/01/23 10:47:52;;;;;;;38.00;3.67;;;8.60;40.60;;;;;;5037752;28;20655;-80
2024/01/23 10:50:21;;;;;;;32.55;3.70;;;8.70;38.80;;;;;;5019727;28;20169;-82
2024/01/23 10:52:49;;;;;;;24.17;3.20;;;8.70;37.80;;;;;;5036886;28;20158;-82
2024/01/23 10:55:16;;;;;;;36.35;4.25;;;8.80;31.50;;;;;;5036740;28;20169;-81
2024/01/23 10:57:48;;;;;;;31.58;3.17;;;8.80;26.30;;;;;;5036662;28;20232;-80
2024/01/23 11:00:16;;;;;;;22.45;3.75;;;8.90;28.10;;;;;;5036775;28;20146;-81
2024/01/23 11:02:56;;;;;;;29.35;5.43;;;8.90;24.30;;;;;;5036148;28;20173;-81
2024/01/23 11:05:35;;;;;;;23.25;3.15;;;8.90;20.10;;;;;;5036417;28;20154;-81
2024/01/23 11:08:13;;;;;;;31.83;4.28;;;9.10;17.90;;;;;;5035783;28;20205;-82
2024/01/23 11:10:54;;;;;;;31.55;3.80;;;9.10;16.20;;;;;;5035731;28;20287;-81
2024/01/23 11:13:42;;;;;;;26.25;3.78;;;9.10;14.70;;;;;;5035890;28;20184;-81
2024/01/23 11:16:09;;;;;;;25.70;2.88;;;9.10;10.70;;;;;;5037702;28;20197;-81
2024/01/23 11:18:35;;;;;;;26.27;3.85;;;9.10;9.10;;;;;;5021814;28;20270;-82
2024/01/23 11:21:04;;;;;;;26.48;3.00;;;9.30;10.40;;;;;;5039889;28;20165;-81
2024/01/23 11:23:30;;;;;;;30.00;3.25;;;9.30;11.30;;;;;;5039548;28;20158;-81
2024/01/23 11:26:19;;;;;;;29.45;3.00;;;9.30;1.00;;;;;;5039842;28;20510;-81
2024/01/23 11:28:49;;;;;;;27.27;3.20;;;9.40;1.10;;;;;;5021025;28;20173;-81
2024/01/23 11:31:18;;;;;;;34.83;3.45;;;9.30;1.00;;;;;;5038986;28;20185;-81
2024/01/23 11:33:44;;;;;;;27.40;2.95;;;9.30;1.00;;;;;;5039300;28;20165;-81
2024/01/23 11:36:29;;;;;;;29.35;3.42;;;9.10;1.00;;;;;;5021317;28;20180;-80
2024/01/23 11:38:59;;;;;;;27.98;3.60;;;9.20;1.00;;;;;;5038733;28;20190;-80
2024/01/23 11:41:27;;;;;;;24.23;3.88;;;9.20;1.00;;;;;;5039400;28;20162;-81
2024/01/23 11:44:14;;;;;;;28.40;3.35;;;9.30;1.00;;;;;;5040321;28;20189;-81
2024/01/23 11:46:40;;;;;;;23.48;2.65;;;9.40;1.00;;;;;;5038302;28;20272;-81
2024/01/23 11:49:06;;;;;;;28.42;3.70;;;9.50;1.00;;;;;;5039536;28;20685;-81
2024/01/23 11:51:36;;;;;;;21.13;2.80;;;9.50;1.00;;;;;;5038731;28;20170;-83
2024/01/23 11:54:07;;;;;;;27.52;3.28;;;9.50;1.00;;;;;;5038554;28;20409;-81
2024/01/23 11:56:33;;;;;;;30.55;3.63;;;9.60;1.00;;;;;;5020289;28;20196;-81
2024/01/23 11:58:59;;;;;;;27.42;3.05;;;9.50;1.00;;;;;;5020625;28;20580;-81
2024/01/23 12:01:29;;;;;;;30.13;4.00;;;9.50;1.00;;;;;;5038755;28;20166;-81
2024/01/23 12:03:55;;;;;;;24.35;3.15;;;9.60;1.00;;;;;;5038390;28;20158;-81
2024/01/23 12:06:22;;;;;;;33.73;3.83;;;9.50;1.00;;;;;;5038562;28;20204;-81
2024/01/23 12:08:48;;;;;;;27.95;3.20;;;9.50;1.00;;;;;;5038495;28;20436;-82
2024/01/23 12:11:15;;;;;;;22.40;3.00;;;9.50;1.00;;;;;;5038803;28;20542;-81
2024/01/23 12:13:45;;;;;;;30.02;2.95;;;9.40;1.00;;;;;;5038132;28;20158;-81
2024/01/23 12:16:11;;;;;;;25.65;4.25;;;9.50;1.00;;;;;;5038300;28;20253;-82
2024/01/23 12:18:36;;;;;;;28.63;3.33;;;9.50;1.00;;;;;;5038353;28;20248;-80
2024/01/23 12:21:05;;;;;;;31.47;3.40;;;9.50;1.00;;;;;;5038444;28;20471;-83
2024/01/23 12:23:32;;;;;;;35.65;3.85;;;9.50;1.00;;;;;;5038328;28;20769;-81
2024/01/23 12:25:59;;;;;;;32.50;3.28;;;9.60;1.00;;;;;;5020054;28;20162;-81
2024/01/23 12:28:31;;;;;;;23.17;2.55;;;9.70;1.00;;;;;;5038191;28;20172;-81
2024/01/23 12:30:57;;;;;;;18.75;2.40;;;9.70;1.00;;;;;;5020478;28;20717;-82
2024/01/23 12:33:22;;;;;;;23.35;3.38;;;9.80;1.00;;;;;;5037736;28;20202;-81
2024/01/23 12:35:49;;;;;;;23.30;2.87;;;9.80;1.00;;;;;;5020405;28;20169;-81
2024/01/23 12:38:18;;;;;;;28.45;3.08;;;9.80;1.00;;;;;;5038039;28;20558;-82
2024/01/23 12:40:44;;;;;;;31.92;3.33;;;9.90;1.00;;;;;;5037937;28;20158;-81
2024/01/23 12:43:10;;;;;;;23.85;3.10;;;9.80;1.00;;;;;;5037681;28;20194;-81
2024/01/23 12:45:36;;;;;;;24.60;2.90;;;9.70;1.00;;;;;;5037832;28;20705;-82